sensor_id;sensor_type;location;lat;lon;timestamp;temperature;humidity
32322;DHT22;61553;48.994;8.940;2023-04-24T00:01:47;10.80;99.90
32322;DHT22;61553;48.994;8.940;2023-04-24T00:04:13;10.80;99.90
32322;DHT22;61553;48.994;8.940;2023-04-24T00:06:42;10.80;99.90
32322;DHT22;61553;48.994;8.940;2023-04-24T00:09:11;10.80;99.90
32322;DHT22;61553;48.994;8.940;2023-04-24T00:11:36;10.70;99.90
32322;DHT22;61553;48.994;8.940;2023-04-24T00:14:02;10.60;99.90
32322;DHT22;61553;48.994;8.940;2023-04-24T00:16:28;10.60;99.90
32322;DHT22;61553;48.994;8.940;2023-04-24T00:18:54;10.70;99.90
32322;DHT22;61553;48.994;8.940;2023-04-24T00:21:19;10.70;99.90
32322;DHT22;61553;48.994;8.940;2023-04-24T00:23:45;10.80;99.90
32322;DHT22;61553;48.994;8.940;2023-04-24T00:26:11;10.90;99.90
32322;DHT22;61553;48.994;8.940;2023-04-24T00:28:37;11.00;99.90
32322;DHT22;61553;48.994;8.940;2023-04-24T00:31:02;11.20;99.90
32322;DHT22;61553;48.994;8.940;2023-04-24T00:33:28;11.20;99.90
32322;DHT22;61553;48.994;8.940;2023-04-24T00:35:54;11.30;99.90
32322;DHT22;61553;48.994;8.940;2023-04-24T00:38:19;11.40;99.90
32322;DHT22;61553;48.994;8.940;2023-04-24T00:40:45;11.40;99.90
32322;DHT22;61553;48.994;8.940;2023-04-24T00:43:11;11.40;99.90
32322;DHT22;61553;48.994;8.940;2023-04-24T00:45:37;11.50;99.90
32322;DHT22;61553;48.994;8.940;2023-04-24T00:48:03;11.50;99.90
32322;DHT22;61553;48.994;8.940;2023-04-24T00:50:29;11.50;99.90
32322;DHT22;61553;48.994;8.940;2023-04-24T00:52:55;11.60;99.90
32322;DHT22;61553;48.994;8.940;2023-04-24T00:55:21;11.70;99.90
32322;DHT22;61553;48.994;8.940;2023-04-24T00:57:47;11.70;99.90
32322;DHT22;61553;48.994;8.940;2023-04-24T01:00:16;11.70;99.90
32322;DHT22;61553;48.994;8.940;2023-04-24T01:02:44;11.70;99.90
32322;DHT22;61553;48.994;8.940;2023-04-24T01:05:11;11.70;99.90
32322;DHT22;61553;48.994;8.940;2023-04-24T01:07:38;11.70;99.90
32322;DHT22;61553;48.994;8.940;2023-04-24T01:10:07;11.70;99.90
32322;DHT22;61553;48.994;8.940;2023-04-24T01:12:33;11.70;99.90
32322;DHT22;61553;48.994;8.940;2023-04-24T01:14:59;11.70;99.90
32322;DHT22;61553;48.994;8.940;2023-04-24T01:17:25;11.80;99.90
32322;DHT22;61553;48.994;8.940;2023-04-24T01:19:50;11.80;99.90
32322;DHT22;61553;48.994;8.940;2023-04-24T01:22:19;11.70;99.90
32322;DHT22;61553;48.994;8.940;2023-04-24T01:24:46;11.70;99.90
32322;DHT22;61553;48.994;8.940;2023-04-24T01:27:12;11.70;99.90
32322;DHT22;61553;48.994;8.940;2023-04-24T01:29:38;11.60;99.90
32322;DHT22;61553;48.994;8.940;2023-04-24T01:32:04;11.50;99.90
32322;DHT22;61553;48.994;8.940;2023-04-24T01:34:31;11.50;99.90
32322;DHT22;61553;48.994;8.940;2023-04-24T01:36:56;11.40;99.90
32322;DHT22;61553;48.994;8.940;2023-04-24T01:39:22;11.40;99.90
32322;DHT22;61553;48.994;8.940;2023-04-24T01:41:51;11.30;99.90
32322;DHT22;61553;48.994;8.940;2023-04-24T01:44:17;11.30;99.90
32322;DHT22;61553;48.994;8.940;2023-04-24T01:46:43;11.20;99.90
32322;DHT22;61553;48.994;8.940;2023-04-24T01:49:10;11.10;99.90
32322;DHT22;61553;48.994;8.940;2023-04-24T01:51:36;11.10;99.90
32322;DHT22;61553;48.994;8.940;2023-04-24T01:54:02;11.10;99.90
32322;DHT22;61553;48.994;8.940;2023-04-24T01:56:29;11.10;99.90
32322;DHT22;61553;48.994;8.940;2023-04-24T01:58:56;11.00;99.90
32322;DHT22;61553;48.994;8.940;2023-04-24T02:01:23;11.00;99.90
32322;DHT22;61553;48.994;8.940;2023-04-24T02:03:49;11.00;99.90
32322;DHT22;61553;48.994;8.940;2023-04-24T02:06:15;11.00;99.90
32322;DHT22;61553;48.994;8.940;2023-04-24T02:08:41;11.00;99.90
32322;DHT22;61553;48.994;8.940;2023-04-24T02:11:08;11.10;99.90
32322;DHT22;61553;48.994;8.940;2023-04-24T02:13:34;11.20;99.90
32322;DHT22;61553;48.994;8.940;2023-04-24T02:15:59;11.30;99.90
32322;DHT22;61553;48.994;8.940;2023-04-24T02:18:25;11.30;99.90
32322;DHT22;61553;48.994;8.940;2023-04-24T02:20:50;11.40;99.90
32322;DHT22;61553;48.994;8.940;2023-04-24T02:23:16;11.40;99.90
32322;DHT22;61553;48.994;8.940;2023-04-24T02:25:42;11.40;99.90
32322;DHT22;61553;48.994;8.940;2023-04-24T02:28:07;11.30;99.90
32322;DHT22;61553;48.994;8.940;2023-04-24T02:30:33;11.30;99.90
32322;DHT22;61553;48.994;8.940;2023-04-24T02:32:58;11.30;99.90
32322;DHT22;61553;48.994;8.940;2023-04-24T02:35:25;11.30;99.90
32322;DHT22;61553;48.994;8.940;2023-04-24T02:37:50;11.40;99.90
32322;DHT22;61553;48.994;8.940;2023-04-24T02:40:16;11.40;99.90
32322;DHT22;61553;48.994;8.940;2023-04-24T02:42:41;11.40;99.90
32322;DHT22;61553;48.994;8.940;2023-04-24T02:45:07;11.40;99.90
32322;DHT22;61553;48.994;8.940;2023-04-24T02:47:33;11.30;99.90
32322;DHT22;61553;48.994;8.940;2023-04-24T02:50:01;11.30;99.90
32322;DHT22;61553;48.994;8.940;2023-04-24T02:52:27;11.30;99.90
32322;DHT22;61553;48.994;8.940;2023-04-24T02:54:52;11.30;99.90
32322;DHT22;61553;48.994;8.940;2023-04-24T02:57:19;11.30;99.90
32322;DHT22;61553;48.994;8.940;2023-04-24T02:59:44;11.30;99.90
32322;DHT22;61553;48.994;8.940;2023-04-24T03:02:10;11.30;99.90
32322;DHT22;61553;48.994;8.940;2023-04-24T03:04:35;11.30;99.90
32322;DHT22;61553;48.994;8.940;2023-04-24T03:07:01;11.20;99.90
32322;DHT22;61553;48.994;8.940;2023-04-24T03:09:27;11.20;99.90
32322;DHT22;61553;48.994;8.940;2023-04-24T03:11:53;11.10;99.90
32322;DHT22;61553;48.994;8.940;2023-04-24T03:14:19;11.10;99.90
32322;DHT22;61553;48.994;8.940;2023-04-24T03:16:44;11.10;99.90
32322;DHT22;61553;48.994;8.940;2023-04-24T03:19:10;11.10;99.90
32322;DHT22;61553;48.994;8.940;2023-04-24T03:21:36;11.10;99.90
32322;DHT22;61553;48.994;8.940;2023-04-24T03:24:08;11.10;99.90
32322;DHT22;61553;48.994;8.940;2023-04-24T03:26:34;11.10;99.90
32322;DHT22;61553;48.994;8.940;2023-04-24T03:29:00;11.10;99.90
32322;DHT22;61553;48.994;8.940;2023-04-24T03:31:26;11.10;99.90
32322;DHT22;61553;48.994;8.940;2023-04-24T03:33:51;11.20;99.90
32322;DHT22;61553;48.994;8.940;2023-04-24T03:36:17;11.10;99.90
32322;DHT22;61553;48.994;8.940;2023-04-24T03:38:44;11.10;99.90
32322;DHT22;61553;48.994;8.940;2023-04-24T03:41:10;11.10;99.90
32322;DHT22;61553;48.994;8.940;2023-04-24T03:43:37;11.20;99.90
32322;DHT22;61553;48.994;8.940;2023-04-24T03:46:03;11.20;99.90
32322;DHT22;61553;48.994;8.940;2023-04-24T03:48:29;11.10;99.90
32322;DHT22;61553;48.994;8.940;2023-04-24T03:50:54;11.10;99.90
32322;DHT22;61553;48.994;8.940;2023-04-24T03:53:20;10.90;99.90
32322;DHT22;61553;48.994;8.940;2023-04-24T03:55:46;10.80;99.90
32322;DHT22;61553;48.994;8.940;2023-04-24T03:58:12;10.60;99.90
32322;DHT22;61553;48.994;8.940;2023-04-24T04:00:39;10.50;99.90
32322;DHT22;61553;48.994;8.940;2023-04-24T04:03:06;10.20;99.90
32322;DHT22;61553;48.994;8.940;2023-04-24T04:05:31;10.00;99.90
32322;DHT22;61553;48.994;8.940;2023-04-24T04:07:57;9.80;99.90
32322;DHT22;61553;48.994;8.940;2023-04-24T04:10:23;9.70;99.90
32322;DHT22;61553;48.994;8.940;2023-04-24T04:12:48;9.60;99.90
32322;DHT22;61553;48.994;8.940;2023-04-24T04:15:14;9.60;99.90
32322;DHT22;61553;48.994;8.940;2023-04-24T04:17:39;9.60;99.90
32322;DHT22;61553;48.994;8.940;2023-04-24T04:20:06;9.50;99.90
32322;DHT22;61553;48.994;8.940;2023-04-24T04:22:35;9.50;99.90
32322;DHT22;61553;48.994;8.940;2023-04-24T04:25:01;9.40;99.90
32322;DHT22;61553;48.994;8.940;2023-04-24T04:27:26;9.30;99.90
32322;DHT22;61553;48.994;8.940;2023-04-24T04:29:53;9.30;99.90
32322;DHT22;61553;48.994;8.940;2023-04-24T04:32:21;9.20;99.90
32322;DHT22;61553;48.994;8.940;2023-04-24T04:34:47;9.20;99.90
32322;DHT22;61553;48.994;8.940;2023-04-24T04:37:14;9.20;99.90
32322;DHT22;61553;48.994;8.940;2023-04-24T04:39:40;9.20;99.90
32322;DHT22;61553;48.994;8.940;2023-04-24T04:42:06;9.20;99.90
32322;DHT22;61553;48.994;8.940;2023-04-24T04:44:32;9.20;99.90
32322;DHT22;61553;48.994;8.940;2023-04-24T04:46:58;9.20;99.90
32322;DHT22;61553;48.994;8.940;2023-04-24T04:49:25;9.20;99.90
32322;DHT22;61553;48.994;8.940;2023-04-24T04:51:53;9.20;99.90
32322;DHT22;61553;48.994;8.940;2023-04-24T04:54:19;9.20;99.90
32322;DHT22;61553;48.994;8.940;2023-04-24T04:56:45;9.20;99.90
32322;DHT22;61553;48.994;8.940;2023-04-24T04:59:10;9.00;99.90
32322;DHT22;61553;48.994;8.940;2023-04-24T05:01:36;9.00;99.90
32322;DHT22;61553;48.994;8.940;2023-04-24T05:04:02;8.90;99.90
32322;DHT22;61553;48.994;8.940;2023-04-24T05:06:27;8.80;99.90
32322;DHT22;61553;48.994;8.940;2023-04-24T05:08:53;8.70;99.90
32322;DHT22;61553;48.994;8.940;2023-04-24T05:11:22;8.70;99.90
32322;DHT22;61553;48.994;8.940;2023-04-24T05:13:48;8.70;99.90
32322;DHT22;61553;48.994;8.940;2023-04-24T05:16:14;8.80;99.90
32322;DHT22;61553;48.994;8.940;2023-04-24T05:18:39;8.90;99.90
32322;DHT22;61553;48.994;8.940;2023-04-24T05:21:05;8.80;99.90
32322;DHT22;61553;48.994;8.940;2023-04-24T05:23:31;9.00;99.90
32322;DHT22;61553;48.994;8.940;2023-04-24T05:25:57;9.20;99.90
32322;DHT22;61553;48.994;8.940;2023-04-24T05:28:22;9.40;99.90
32322;DHT22;61553;48.994;8.940;2023-04-24T05:30:48;9.50;99.90
32322;DHT22;61553;48.994;8.940;2023-04-24T05:33:14;9.60;99.90
32322;DHT22;61553;48.994;8.940;2023-04-24T05:35:41;9.80;99.90
32322;DHT22;61553;48.994;8.940;2023-04-24T05:38:13;9.90;99.90
32322;DHT22;61553;48.994;8.940;2023-04-24T05:40:39;10.10;99.90
32322;DHT22;61553;48.994;8.940;2023-04-24T05:43:04;10.20;99.90
32322;DHT22;61553;48.994;8.940;2023-04-24T05:45:30;10.40;99.90
32322;DHT22;61553;48.994;8.940;2023-04-24T05:47:56;10.50;99.90
32322;DHT22;61553;48.994;8.940;2023-04-24T05:50:21;10.60;99.90
32322;DHT22;61553;48.994;8.940;2023-04-24T05:52:47;10.70;99.90
32322;DHT22;61553;48.994;8.940;2023-04-24T05:55:12;10.90;99.90
32322;DHT22;61553;48.994;8.940;2023-04-24T05:57:39;11.00;99.90
32322;DHT22;61553;48.994;8.940;2023-04-24T06:00:05;11.00;99.90
32322;DHT22;61553;48.994;8.940;2023-04-24T06:02:31;11.20;99.90
32322;DHT22;61553;48.994;8.940;2023-04-24T06:04:58;11.40;99.90
32322;DHT22;61553;48.994;8.940;2023-04-24T06:07:25;11.40;99.90
32322;DHT22;61553;48.994;8.940;2023-04-24T06:09:52;11.50;99.90
32322;DHT22;61553;48.994;8.940;2023-04-24T06:12:17;11.50;99.90
32322;DHT22;61553;48.994;8.940;2023-04-24T06:14:43;11.70;99.90
32322;DHT22;61553;48.994;8.940;2023-04-24T06:17:09;12.20;99.90
32322;DHT22;61553;48.994;8.940;2023-04-24T06:19:35;12.70;99.90
32322;DHT22;61553;48.994;8.940;2023-04-24T06:22:00;13.10;99.90
32322;DHT22;61553;48.994;8.940;2023-04-24T06:24:29;13.70;99.90
32322;DHT22;61553;48.994;8.940;2023-04-24T06:26:55;13.90;99.90
32322;DHT22;61553;48.994;8.940;2023-04-24T06:29:22;14.50;99.90
32322;DHT22;61553;48.994;8.940;2023-04-24T06:31:47;16.50;99.90
32322;DHT22;61553;48.994;8.940;2023-04-24T06:34:13;19.30;96.40
32322;DHT22;61553;48.994;8.940;2023-04-24T06:36:39;19.70;93.00
32322;DHT22;61553;48.994;8.940;2023-04-24T06:39:05;18.40;92.10
32322;DHT22;61553;48.994;8.940;2023-04-24T06:41:30;17.70;93.70
32322;DHT22;61553;48.994;8.940;2023-04-24T06:43:56;17.90;92.30
32322;DHT22;61553;48.994;8.940;2023-04-24T06:46:22;18.20;90.90
32322;DHT22;61553;48.994;8.940;2023-04-24T06:48:49;19.80;87.20
32322;DHT22;61553;48.994;8.940;2023-04-24T06:51:15;19.80;83.10
32322;DHT22;61553;48.994;8.940;2023-04-24T06:53:42;19.40;81.80
32322;DHT22;61553;48.994;8.940;2023-04-24T06:56:08;18.80;82.00
32322;DHT22;61553;48.994;8.940;2023-04-24T06:58:34;18.40;84.50
32322;DHT22;61553;48.994;8.940;2023-04-24T07:00:59;18.80;83.90
32322;DHT22;61553;48.994;8.940;2023-04-24T07:03:25;18.40;82.50
32322;DHT22;61553;48.994;8.940;2023-04-24T07:05:51;18.60;81.80
32322;DHT22;61553;48.994;8.940;2023-04-24T07:08:16;19.30;81.60
32322;DHT22;61553;48.994;8.940;2023-04-24T07:10:44;19.10;79.50
32322;DHT22;61553;48.994;8.940;2023-04-24T07:13:10;19.30;78.70
32322;DHT22;61553;48.994;8.940;2023-04-24T07:15:35;19.20;76.60
32322;DHT22;61553;48.994;8.940;2023-04-24T07:18:01;19.00;79.20
32322;DHT22;61553;48.994;8.940;2023-04-24T07:20:27;18.30;78.10
32322;DHT22;61553;48.994;8.940;2023-04-24T07:22:52;17.70;81.30
32322;DHT22;61553;48.994;8.940;2023-04-24T07:25:19;17.30;82.40
32322;DHT22;61553;48.994;8.940;2023-04-24T07:27:45;16.90;83.70
32322;DHT22;61553;48.994;8.940;2023-04-24T07:30:11;16.50;85.70
32322;DHT22;61553;48.994;8.940;2023-04-24T07:32:37;16.10;87.60
32322;DHT22;61553;48.994;8.940;2023-04-24T07:35:02;15.00;87.70
32322;DHT22;61553;48.994;8.940;2023-04-24T07:37:28;14.60;88.80
32322;DHT22;61553;48.994;8.940;2023-04-24T07:39:54;14.60;87.30
32322;DHT22;61553;48.994;8.940;2023-04-24T07:42:20;14.50;88.00
32322;DHT22;61553;48.994;8.940;2023-04-24T07:44:46;15.20;84.70
32322;DHT22;61553;48.994;8.940;2023-04-24T07:47:13;15.20;87.00
32322;DHT22;61553;48.994;8.940;2023-04-24T07:49:41;15.10;87.20
32322;DHT22;61553;48.994;8.940;2023-04-24T07:52:08;15.20;87.70
32322;DHT22;61553;48.994;8.940;2023-04-24T07:54:33;15.60;85.50
32322;DHT22;61553;48.994;8.940;2023-04-24T07:56:59;16.40;81.20
32322;DHT22;61553;48.994;8.940;2023-04-24T07:59:26;17.20;78.60
32322;DHT22;61553;48.994;8.940;2023-04-24T08:01:51;17.90;74.60
32322;DHT22;61553;48.994;8.940;2023-04-24T08:04:17;18.60;72.00
32322;DHT22;61553;48.994;8.940;2023-04-24T08:06:43;18.70;70.30
32322;DHT22;61553;48.994;8.940;2023-04-24T08:09:09;19.10;68.80
32322;DHT22;61553;48.994;8.940;2023-04-24T08:11:35;19.90;67.00
32322;DHT22;61553;48.994;8.940;2023-04-24T08:14:00;21.00;62.00
32322;DHT22;61553;48.994;8.940;2023-04-24T08:16:27;21.50;60.20
32322;DHT22;61553;48.994;8.940;2023-04-24T08:18:53;21.80;58.00
32322;DHT22;61553;48.994;8.940;2023-04-24T08:21:19;22.00;58.90
32322;DHT22;61553;48.994;8.940;2023-04-24T08:23:46;21.30;57.60
32322;DHT22;61553;48.994;8.940;2023-04-24T08:26:12;19.80;60.90
32322;DHT22;61553;48.994;8.940;2023-04-24T08:28:38;18.60;63.50
32322;DHT22;61553;48.994;8.940;2023-04-24T08:31:04;17.60;66.90
32322;DHT22;61553;48.994;8.940;2023-04-24T08:33:30;16.50;68.70
32322;DHT22;61553;48.994;8.940;2023-04-24T08:36:01;15.70;71.30
32322;DHT22;61553;48.994;8.940;2023-04-24T08:38:27;15.10;76.10
32322;DHT22;61553;48.994;8.940;2023-04-24T08:40:52;14.40;79.90
32322;DHT22;61553;48.994;8.940;2023-04-24T08:43:21;14.00;87.00
32322;DHT22;61553;48.994;8.940;2023-04-24T08:45:47;13.50;87.60
32322;DHT22;61553;48.994;8.940;2023-04-24T08:48:13;13.30;88.10
32322;DHT22;61553;48.994;8.940;2023-04-24T08:50:40;13.80;89.90
32322;DHT22;61553;48.994;8.940;2023-04-24T08:53:08;16.20;83.10
32322;DHT22;61553;48.994;8.940;2023-04-24T08:55:34;18.40;72.90
32322;DHT22;61553;48.994;8.940;2023-04-24T08:58:01;20.20;64.20
32322;DHT22;61553;48.994;8.940;2023-04-24T09:00:28;20.50;62.20
32322;DHT22;61553;48.994;8.940;2023-04-24T09:02:55;20.60;62.40
32322;DHT22;61553;48.994;8.940;2023-04-24T09:05:22;20.60;63.20
32322;DHT22;61553;48.994;8.940;2023-04-24T09:07:54;20.90;63.40
32322;DHT22;61553;48.994;8.940;2023-04-24T09:10:21;21.60;62.10
32322;DHT22;61553;48.994;8.940;2023-04-24T09:12:47;20.70;62.20
32322;DHT22;61553;48.994;8.940;2023-04-24T09:15:13;20.40;62.70
32322;DHT22;61553;48.994;8.940;2023-04-24T09:17:39;19.10;63.70
32322;DHT22;61553;48.994;8.940;2023-04-24T09:20:05;17.80;67.30
32322;DHT22;61553;48.994;8.940;2023-04-24T09:22:31;16.90;72.00
32322;DHT22;61553;48.994;8.940;2023-04-24T09:25:04;16.50;72.80
32322;DHT22;61553;48.994;8.940;2023-04-24T09:27:32;15.90;74.20
32322;DHT22;61553;48.994;8.940;2023-04-24T09:29:58;15.50;76.50
32322;DHT22;61553;48.994;8.940;2023-04-24T09:32:25;15.30;77.90
32322;DHT22;61553;48.994;8.940;2023-04-24T09:35:06;16.30;76.10
32322;DHT22;61553;48.994;8.940;2023-04-24T09:37:36;18.20;70.70
32322;DHT22;61553;48.994;8.940;2023-04-24T09:40:19;19.70;66.70
32322;DHT22;61553;48.994;8.940;2023-04-24T09:42:53;20.90;62.50
32322;DHT22;61553;48.994;8.940;2023-04-24T09:45:20;21.70;58.60
32322;DHT22;61553;48.994;8.940;2023-04-24T09:47:45;22.30;58.00
32322;DHT22;61553;48.994;8.940;2023-04-24T09:50:15;22.40;57.50
32322;DHT22;61553;48.994;8.940;2023-04-24T09:52:46;24.10;54.30
32322;DHT22;61553;48.994;8.940;2023-04-24T09:55:15;24.50;53.20
32322;DHT22;61553;48.994;8.940;2023-04-24T09:57:49;23.60;52.50
32322;DHT22;61553;48.994;8.940;2023-04-24T10:00:25;21.80;54.90
32322;DHT22;61553;48.994;8.940;2023-04-24T10:03:05;19.90;59.20
32322;DHT22;61553;48.994;8.940;2023-04-24T10:05:35;18.40;62.00
32322;DHT22;61553;48.994;8.940;2023-04-24T10:08:09;17.30;65.20
32322;DHT22;61553;48.994;8.940;2023-04-24T10:10:40;16.90;65.30
32322;DHT22;61553;48.994;8.940;2023-04-24T10:13:08;16.50;68.20
32322;DHT22;61553;48.994;8.940;2023-04-24T10:15:39;16.00;70.00
32322;DHT22;61553;48.994;8.940;2023-04-24T10:18:06;15.70;69.30
32322;DHT22;61553;48.994;8.940;2023-04-24T10:20:34;15.20;70.40
32322;DHT22;61553;48.994;8.940;2023-04-24T10:23:00;15.00;72.80
32322;DHT22;61553;48.994;8.940;2023-04-24T10:25:28;14.80;74.50
32322;DHT22;61553;48.994;8.940;2023-04-24T10:27:55;14.90;72.60
32322;DHT22;61553;48.994;8.940;2023-04-24T10:30:26;14.90;73.40
32322;DHT22;61553;48.994;8.940;2023-04-24T10:32:52;14.70;73.80
32322;DHT22;61553;48.994;8.940;2023-04-24T10:35:18;14.50;75.10
32322;DHT22;61553;48.994;8.940;2023-04-24T10:37:50;14.10;75.30
32322;DHT22;61553;48.994;8.940;2023-04-24T10:40:18;14.00;76.40
32322;DHT22;61553;48.994;8.940;2023-04-24T10:42:47;14.10;76.00
32322;DHT22;61553;48.994;8.940;2023-04-24T10:45:21;14.30;77.20
32322;DHT22;61553;48.994;8.940;2023-04-24T10:48:07;14.90;75.80
32322;DHT22;61553;48.994;8.940;2023-04-24T10:50:44;15.40;73.50
32322;DHT22;61553;48.994;8.940;2023-04-24T10:53:18;15.80;74.00
32322;DHT22;61553;48.994;8.940;2023-04-24T10:55:50;16.10;72.60
32322;DHT22;61553;48.994;8.940;2023-04-24T10:58:17;16.50;72.60
32322;DHT22;61553;48.994;8.940;2023-04-24T11:00:57;16.50;71.20
32322;DHT22;61553;48.994;8.940;2023-04-24T11:03:28;16.50;70.90
32322;DHT22;61553;48.994;8.940;2023-04-24T11:06:07;16.40;70.40
32322;DHT22;61553;48.994;8.940;2023-04-24T11:08:43;15.80;70.30
32322;DHT22;61553;48.994;8.940;2023-04-24T11:11:12;15.60;70.70
32322;DHT22;61553;48.994;8.940;2023-04-24T11:16:29;15.00;72.00
32322;DHT22;61553;48.994;8.940;2023-04-24T11:22:02;14.70;72.40
32322;DHT22;61553;48.994;8.940;2023-04-24T11:29:39;15.70;72.10
32322;DHT22;61553;48.994;8.940;2023-04-24T11:34:41;16.10;69.70
32322;DHT22;61553;48.994;8.940;2023-04-24T11:37:07;16.10;70.90
32322;DHT22;61553;48.994;8.940;2023-04-24T11:39:36;15.80;72.10
32322;DHT22;61553;48.994;8.940;2023-04-24T11:42:03;15.40;72.90
32322;DHT22;61553;48.994;8.940;2023-04-24T11:44:31;15.10;76.20
32322;DHT22;61553;48.994;8.940;2023-04-24T11:46:58;14.50;75.60
32322;DHT22;61553;48.994;8.940;2023-04-24T11:49:25;14.60;76.50
32322;DHT22;61553;48.994;8.940;2023-04-24T11:51:55;15.00;78.00
32322;DHT22;61553;48.994;8.940;2023-04-24T11:54:21;15.30;79.30
32322;DHT22;61553;48.994;8.940;2023-04-24T11:56:47;15.40;76.80
32322;DHT22;61553;48.994;8.940;2023-04-24T11:59:13;15.20;75.70
32322;DHT22;61553;48.994;8.940;2023-04-24T12:01:46;15.50;77.00
32322;DHT22;61553;48.994;8.940;2023-04-24T12:04:12;15.80;76.80
32322;DHT22;61553;48.994;8.940;2023-04-24T12:06:39;15.80;77.60
32322;DHT22;61553;48.994;8.940;2023-04-24T12:09:05;15.80;76.10
32322;DHT22;61553;48.994;8.940;2023-04-24T12:11:31;15.80;76.60
32322;DHT22;61553;48.994;8.940;2023-04-24T12:13:57;15.60;80.20
32322;DHT22;61553;48.994;8.940;2023-04-24T12:16:25;15.20;86.40
32322;DHT22;61553;48.994;8.940;2023-04-24T12:18:51;14.10;90.40
32322;DHT22;61553;48.994;8.940;2023-04-24T12:21:21;12.90;95.00
32322;DHT22;61553;48.994;8.940;2023-04-24T12:23:48;12.50;99.90
32322;DHT22;61553;48.994;8.940;2023-04-24T12:26:20;11.80;99.90
32322;DHT22;61553;48.994;8.940;2023-04-24T12:28:49;11.30;99.90
32322;DHT22;61553;48.994;8.940;2023-04-24T12:31:20;11.00;99.90
32322;DHT22;61553;48.994;8.940;2023-04-24T12:33:46;11.30;99.90
32322;DHT22;61553;48.994;8.940;2023-04-24T12:36:12;11.70;99.90
32322;DHT22;61553;48.994;8.940;2023-04-24T12:38:38;11.90;99.90
32322;DHT22;61553;48.994;8.940;2023-04-24T12:41:12;12.00;99.90
32322;DHT22;61553;48.994;8.940;2023-04-24T12:43:37;11.90;99.90
32322;DHT22;61553;48.994;8.940;2023-04-24T12:46:04;12.20;99.90
32322;DHT22;61553;48.994;8.940;2023-04-24T12:48:30;12.30;99.90
32322;DHT22;61553;48.994;8.940;2023-04-24T12:51:00;12.40;99.90
32322;DHT22;61553;48.994;8.940;2023-04-24T12:53:29;12.60;99.90
32322;DHT22;61553;48.994;8.940;2023-04-24T12:56:00;12.50;99.90
32322;DHT22;61553;48.994;8.940;2023-04-24T12:58:25;12.50;99.90
32322;DHT22;61553;48.994;8.940;2023-04-24T13:00:51;12.60;99.90
32322;DHT22;61553;48.994;8.940;2023-04-24T13:03:17;12.70;99.90
32322;DHT22;61553;48.994;8.940;2023-04-24T13:05:43;12.80;99.90
32322;DHT22;61553;48.994;8.940;2023-04-24T13:08:09;12.80;99.90
32322;DHT22;61553;48.994;8.940;2023-04-24T13:10:35;12.80;99.90
32322;DHT22;61553;48.994;8.940;2023-04-24T13:13:00;12.90;99.90
32322;DHT22;61553;48.994;8.940;2023-04-24T13:15:26;13.40;99.90
32322;DHT22;61553;48.994;8.940;2023-04-24T13:17:52;13.80;99.90
32322;DHT22;61553;48.994;8.940;2023-04-24T13:20:18;14.00;99.90
32322;DHT22;61553;48.994;8.940;2023-04-24T13:22:43;14.10;99.90
32322;DHT22;61553;48.994;8.940;2023-04-24T13:25:09;14.10;99.90
32322;DHT22;61553;48.994;8.940;2023-04-24T13:27:37;14.20;99.90
32322;DHT22;61553;48.994;8.940;2023-04-24T13:30:03;14.50;99.90
32322;DHT22;61553;48.994;8.940;2023-04-24T13:32:29;14.60;98.40
32322;DHT22;61553;48.994;8.940;2023-04-24T13:34:55;14.90;98.70
32322;DHT22;61553;48.994;8.940;2023-04-24T13:37:21;14.90;95.50
32322;DHT22;61553;48.994;8.940;2023-04-24T13:39:48;14.90;96.70
32322;DHT22;61553;48.994;8.940;2023-04-24T13:42:13;14.70;95.60
32322;DHT22;61553;48.994;8.940;2023-04-24T13:44:40;14.50;95.20
32322;DHT22;61553;48.994;8.940;2023-04-24T13:47:05;14.40;96.00
32322;DHT22;61553;48.994;8.940;2023-04-24T13:49:31;14.50;95.40
32322;DHT22;61553;48.994;8.940;2023-04-24T13:51:57;14.50;94.90
32322;DHT22;61553;48.994;8.940;2023-04-24T13:54:23;14.40;94.90
32322;DHT22;61553;48.994;8.940;2023-04-24T13:56:51;14.20;95.10
32322;DHT22;61553;48.994;8.940;2023-04-24T13:59:17;13.90;94.30
32322;DHT22;61553;48.994;8.940;2023-04-24T14:01:42;13.70;97.10
32322;DHT22;61553;48.994;8.940;2023-04-24T14:04:10;13.40;99.90
32322;DHT22;61553;48.994;8.940;2023-04-24T14:06:36;12.80;99.90
32322;DHT22;61553;48.994;8.940;2023-04-24T14:09:02;12.40;99.90
32322;DHT22;61553;48.994;8.940;2023-04-24T14:11:28;12.40;99.90
32322;DHT22;61553;48.994;8.940;2023-04-24T14:13:54;12.70;99.90
32322;DHT22;61553;48.994;8.940;2023-04-24T14:16:21;13.00;99.90
32322;DHT22;61553;48.994;8.940;2023-04-24T14:18:47;13.30;99.90
32322;DHT22;61553;48.994;8.940;2023-04-24T14:21:13;13.20;99.90
32322;DHT22;61553;48.994;8.940;2023-04-24T14:23:38;13.50;99.90
32322;DHT22;61553;48.994;8.940;2023-04-24T14:26:04;13.70;99.90
32322;DHT22;61553;48.994;8.940;2023-04-24T14:28:30;13.90;99.90
32322;DHT22;61553;48.994;8.940;2023-04-24T14:30:55;14.10;99.90
32322;DHT22;61553;48.994;8.940;2023-04-24T14:33:21;14.10;99.90
32322;DHT22;61553;48.994;8.940;2023-04-24T14:35:47;14.20;99.90
32322;DHT22;61553;48.994;8.940;2023-04-24T14:38:13;14.20;99.90
32322;DHT22;61553;48.994;8.940;2023-04-24T14:40:39;14.30;99.90
32322;DHT22;61553;48.994;8.940;2023-04-24T14:43:05;14.20;99.90
32322;DHT22;61553;48.994;8.940;2023-04-24T14:45:30;14.20;99.90
32322;DHT22;61553;48.994;8.940;2023-04-24T14:47:57;14.20;99.50
32322;DHT22;61553;48.994;8.940;2023-04-24T14:50:22;14.00;99.10
32322;DHT22;61553;48.994;8.940;2023-04-24T14:52:48;14.00;97.60
32322;DHT22;61553;48.994;8.940;2023-04-24T14:55:14;14.10;99.80
32322;DHT22;61553;48.994;8.940;2023-04-24T14:57:40;14.00;97.80
32322;DHT22;61553;48.994;8.940;2023-04-24T15:00:07;13.90;97.00
32322;DHT22;61553;48.994;8.940;2023-04-24T15:02:34;13.70;96.70
32322;DHT22;61553;48.994;8.940;2023-04-24T15:05:03;13.40;96.30
32322;DHT22;61553;48.994;8.940;2023-04-24T15:07:29;13.30;96.50
32322;DHT22;61553;48.994;8.940;2023-04-24T15:09:56;13.20;97.20
32322;DHT22;61553;48.994;8.940;2023-04-24T15:12:22;13.10;98.20
32322;DHT22;61553;48.994;8.940;2023-04-24T15:14:47;13.20;99.00
32322;DHT22;61553;48.994;8.940;2023-04-24T15:17:13;13.40;99.90
32322;DHT22;61553;48.994;8.940;2023-04-24T15:19:39;13.80;97.70
32322;DHT22;61553;48.994;8.940;2023-04-24T15:22:04;14.30;96.10
32322;DHT22;61553;48.994;8.940;2023-04-24T15:24:30;14.60;95.40
32322;DHT22;61553;48.994;8.940;2023-04-24T15:26:56;14.70;95.10
32322;DHT22;61553;48.994;8.940;2023-04-24T15:29:22;14.80;94.20
32322;DHT22;61553;48.994;8.940;2023-04-24T15:31:48;14.80;94.00
32322;DHT22;61553;48.994;8.940;2023-04-24T15:34:13;14.60;94.70
32322;DHT22;61553;48.994;8.940;2023-04-24T15:36:39;14.40;93.80
32322;DHT22;61553;48.994;8.940;2023-04-24T15:39:05;14.50;93.40
32322;DHT22;61553;48.994;8.940;2023-04-24T15:41:31;14.50;93.10
32322;DHT22;61553;48.994;8.940;2023-04-24T15:43:57;14.50;92.90